Temp: 9.9°C   Baro: 1017.5mb
  Wind: 9.0mph   Dir: W (281°)
  Rain: 0.0mm (0.0mm/hr)
  Sun: 200W/m2  Humidity: 62%

Historic data

Bath Spa Weather Station Historical Data
Daily Summary for February 23, 2024 Units:  Metric    English   Both
Daily Weekly Monthly Yearly Custom
  High: Low: Average:
Temperature: 6.9 °C 0.4 °C 3.7 °C
Dew Point: 3.7 °C -0.7 °C 2 °C
Humidity: 92% 78% 89%
Wind Speed: 17.1km/h 0km/h 5.8km/h
Wind Gust: 29km/h - -
Wind- - WSW
Pressure: 991.8 hPa 985 hPa -
Precipitation: 2.03 mm    
Historical Graphs
 
 
Tabular Data for February 23, 2024
Time Temperature Dew Point Pressure Wind Wind Speed Wind Gust Humidity Rainfall Rate (Hourly) solar
00:09 3.6 °C 1.6 °C 986.3 hPa SW 7.4 km/h 16.1 km/h 87% 0 mm 0 W/m2
00:14 3.7 °C 1.7 °C 986.3 hPa SW 4.5 km/h 12.9 km/h 87% 0 mm 0 W/m2
00:19 3.7 °C 1.7 °C 986 hPa SSW 4.5 km/h 14.5 km/h 87% 0 mm 0 W/m2
00:24 3.8 °C 1.8 °C 986 hPa SSW 6.8 km/h 12.9 km/h 87% 0 mm 0 W/m2
00:29 3.8 °C 1.8 °C 986 hPa SSW 4 km/h 12.9 km/h 87% 0 mm 0 W/m2
00:34 3.8 °C 1.8 °C 986 hPa SSW 1.8 km/h 4.8 km/h 87% 0 mm 0 W/m2
00:39 3.8 °C 1.8 °C 985.7 hPa SSW 2.6 km/h 6.4 km/h 87% 0 mm 0 W/m2
00:44 3.8 °C 1.8 °C 985.7 hPa SSW 3.1 km/h 12.9 km/h 87% 0 mm 0 W/m2
00:49 3.8 °C 1.8 °C 985.7 hPa SW 6.6 km/h 11.3 km/h 87% 0 mm 0 W/m2
00:54 3.9 °C 1.9 °C 985.7 hPa SW 4 km/h 9.7 km/h 87% 0 mm 0 W/m2
00:59 4.1 °C 2.1 °C 985.7 hPa SW 7.2 km/h 16.1 km/h 87% 0 mm 0 W/m2
01:04 4.1 °C 2.1 °C 985.7 hPa SSW 10.3 km/h 17.7 km/h 87% 0 mm 0 W/m2
01:09 4.1 °C 2.1 °C 985.7 hPa SW 10.3 km/h 16.1 km/h 87% 0.25 mm 0 W/m2
01:14 4.1 °C 2.1 °C 985.3 hPa SW 6 km/h 14.5 km/h 87% 0.25 mm 0 W/m2
01:19 4 °C 2 °C 985.3 hPa SW 9.8 km/h 20.9 km/h 87% 0.25 mm 0 W/m2
01:24 4 °C 2.2 °C 985.7 hPa WSW 6.6 km/h 14.5 km/h 87.6% 0.51 mm 0 W/m2
01:29 3.9 °C 2.1 °C 985.7 hPa SW 5 km/h 12.9 km/h 88% 1.02 mm 0 W/m2
01:34 3.8 °C 2 °C 985.3 hPa WSW 9 km/h 16.1 km/h 88% 1.52 mm 0 W/m2
01:39 3.8 °C 2 °C 985.3 hPa SW 6.6 km/h 19.3 km/h 88% 1.52 mm 0 W/m2
01:44 3.8 °C 2.2 °C 985.3 hPa SW 9.8 km/h 19.3 km/h 89% 1.52 mm 0 W/m2
01:49 3.8 °C 2.2 °C 985.3 hPa WSW 11.9 km/h 22.5 km/h 89% 1.52 mm 0 W/m2
01:54 3.8 °C 2.2 °C 985.3 hPa WSW 11.4 km/h 29 km/h 89% 1.52 mm 0 W/m2
01:59 3.8 °C 2.2 °C 985.3 hPa SW 6.4 km/h 29 km/h 89.4% 1.52 mm 0 W/m2
02:04 3.8 °C 2.3 °C 985.3 hPa West 10.3 km/h 24.1 km/h 89.6% 1.52 mm 0 W/m2
02:09 3.8 °C 2.3 °C 985.3 hPa WSW 6 km/h 16.1 km/h 90% 1.52 mm 0 W/m2
02:14 3.7 °C 2.2 °C 985.3 hPa West 10.3 km/h 16.1 km/h 90% 1.27 mm 0 W/m2
02:19 3.7 °C 2.2 °C 985.3 hPa WSW 9 km/h 17.7 km/h 90% 1.27 mm 0 W/m2
02:24 3.7 °C 2.2 °C 985 hPa WSW 5.8 km/h 14.5 km/h 90% 1.27 mm 0 W/m2
02:29 3.6 °C 2.1 °C 985 hPa WSW 7.4 km/h 12.9 km/h 90% 0.76 mm 0 W/m2
02:34 3.7 °C 2.3 °C 985 hPa SW 10.8 km/h 24.1 km/h 90.5% 0.25 mm 0 W/m2
02:39 3.7 °C 2.3 °C 985.3 hPa West 6.6 km/h 24.1 km/h 90.4% 0.25 mm 0 W/m2
02:44 3.7 °C 2.4 °C 985.3 hPa WSW 7.4 km/h 17.7 km/h 91% 0.25 mm 0 W/m2
02:49 3.7 °C 2.4 °C 985.3 hPa West 7.2 km/h 11.3 km/h 91% 0.25 mm 0 W/m2
02:54 3.7 °C 2.4 °C 985.3 hPa West 8.2 km/h 20.9 km/h 91% 0.25 mm 0 W/m2
02:59 3.7 °C 2.3 °C 985.3 hPa WSW 6.1 km/h 11.3 km/h 91% 0.25 mm 0 W/m2
03:04 3.6 °C 2.3 °C 985.3 hPa West 7.9 km/h 14.5 km/h 91% 0.25 mm 0 W/m2
03:09 3.6 °C 2.3 °C 985.3 hPa West 5.8 km/h 12.9 km/h 91% 0.25 mm 0 W/m2
03:14 3.5 °C 2.2 °C 985.3 hPa West 7.4 km/h 11.3 km/h 91% 0.25 mm 0 W/m2
03:19 3.5 °C 2.2 °C 985.3 hPa West 6.1 km/h 16.1 km/h 91% 0.25 mm 0 W/m2
03:24 3.4 °C 2.1 °C 985.3 hPa West 6 km/h 12.9 km/h 91% 0.25 mm 0 W/m2
03:29 3.4 °C 2.1 °C 985.3 hPa West 8 km/h 14.5 km/h 91% 0.25 mm 0 W/m2
03:34 3.4 °C 2.1 °C 985.3 hPa West 8.4 km/h 14.5 km/h 91% 0.25 mm 0 W/m2
03:39 3.4 °C 2.1 °C 985.3 hPa West 6.3 km/h 11.3 km/h 91% 0 mm 0 W/m2
03:44 3.4 °C 2.1 °C 985.3 hPa West 4.7 km/h 9.7 km/h 91% 0 mm 0 W/m2
03:49 3.3 °C 2.1 °C 985.3 hPa West 5.6 km/h 9.7 km/h 91% 0 mm 0 W/m2
03:54 3.4 °C 2.1 °C 985.7 hPa West 5.5 km/h 9.7 km/h 91% 0 mm 0 W/m2
03:59 3.4 °C 2.1 °C 985.7 hPa West 6.3 km/h 14.5 km/h 91% 0 mm 0 W/m2
04:04 3.4 °C 2.1 °C 985.7 hPa WSW 8.2 km/h 16.1 km/h 91% 0 mm 0 W/m2
04:09 3.4 °C 2.1 °C 985.3 hPa West 5.3 km/h 12.9 km/h 91% 0 mm 0 W/m2
04:14 3.4 °C 2.2 °C 985.3 hPa West 4.8 km/h 11.3 km/h 91% 0 mm 0 W/m2
04:19 3.4 °C 2.1 °C 985.3 hPa West 5 km/h 9.7 km/h 91% 0 mm 0 W/m2
04:24 3.4 °C 2.1 °C 985.3 hPa West 6.4 km/h 9.7 km/h 91% 0 mm 0 W/m2
04:29 3.4 °C 2.1 °C 985.3 hPa West 7.2 km/h 12.9 km/h 91% 0 mm 0 W/m2
04:34 3.4 °C 2.1 °C 985.7 hPa West 5.3 km/h 12.9 km/h 91% 0 mm 0 W/m2
04:39 3.4 °C 2.2 °C 985.7 hPa West 7.2 km/h 14.5 km/h 91% 0 mm 0 W/m2
04:44 3.4 °C 2.1 °C 985.7 hPa WSW 8.5 km/h 14.5 km/h 91% 0 mm 0 W/m2
04:49 3.5 °C 2.2 °C 985.7 hPa West 7.1 km/h 12.9 km/h 91% 0 mm 0 W/m2
04:54 3.5 °C 2.2 °C 985.7 hPa West 6.6 km/h 14.5 km/h 91% 0 mm 0 W/m2
04:59 3.6 °C 2.3 °C 986 hPa West 6.4 km/h 8 km/h 91% 0 mm 0 W/m2
05:04 3.6 °C 2.3 °C 985.7 hPa West 3.4 km/h 8 km/h 91% 0 mm 0 W/m2
05:09 3.7 °C 2.4 °C 986 hPa WSW 4.2 km/h 11.3 km/h 91% 0 mm 0 W/m2
05:14 3.7 °C 2.4 °C 986 hPa WSW 5.1 km/h 9.7 km/h 91% 0 mm 0 W/m2
05:19 3.7 °C 2.4 °C 986 hPa WSW 8.4 km/h 14.5 km/h 91% 0 mm 0 W/m2
05:24 3.8 °C 2.5 °C 986 hPa WSW 8.5 km/h 17.7 km/h 91% 0 mm 0 W/m2
05:29 3.8 °C 2.5 °C 986 hPa West 7.7 km/h 14.5 km/h 91% 0 mm 0 W/m2
05:34 3.8 °C 2.5 °C 986 hPa WSW 4 km/h 9.7 km/h 91% 0 mm 0 W/m2
05:39 3.8 °C 2.6 °C 986 hPa WSW 6.4 km/h 16.1 km/h 91% 0 mm 0 W/m2
05:44 3.8 °C 2.6 °C 986 hPa SW 5.3 km/h 11.3 km/h 91% 0 mm 0 W/m2
05:49 3.8 °C 2.5 °C 986 hPa SW 3.9 km/h 8 km/h 91% 0 mm 0 W/m2
05:54 3.7 °C 2.4 °C 986.3 hPa SW 5 km/h 11.3 km/h 91% 0 mm 0 W/m2
05:59 3.7 °C 2.3 °C 986.3 hPa SW 2.7 km/h 6.4 km/h 91% 0 mm 0 W/m2
06:04 3.6 °C 2.3 °C 986.3 hPa SW 1.6 km/h 6.4 km/h 91% 0 mm 0 W/m2
06:09 3.5 °C 2.2 °C 986.3 hPa SW 1.6 km/h 6.4 km/h 91% 0 mm 0 W/m2
06:14 3.4 °C 2.1 °C 986 hPa SW 1.3 km/h 3.2 km/h 91% 0 mm 0 W/m2
06:19 3.3 °C 1.9 °C 986.3 hPa Calm   3.2 km/h 91% 0 mm 0 W/m2
06:24 3.2 °C 1.8 °C 986.3 hPa Calm   3.2 km/h 91% 0 mm 0 W/m2
06:29 3.1 °C 1.8 °C 986.3 hPa SW 1.4 km/h 4.8 km/h 91% 0 mm 0 W/m2
06:34 3.2 °C 1.8 °C 986.3 hPa SW 1.3 km/h 3.2 km/h 91% 0 mm 0 W/m2
06:39 3.1 °C 1.7 °C 986.3 hPa SW 2.1 km/h 4.8 km/h 91% 0 mm 0 W/m2
06:44 3 °C 1.7 °C 986.3 hPa SW 1.4 km/h 4.8 km/h 91% 0 mm 0 W/m2
06:49 3.1 °C 1.8 °C 986.3 hPa SW 5.1 km/h 8 km/h 91% 0 mm 0 W/m2
06:54 3.3 °C 2 °C 986.3 hPa SW 8.4 km/h 20.9 km/h 91% 0 mm 0 W/m2
06:59 3.4 °C 2.2 °C 986.3 hPa SW 9.8 km/h 17.7 km/h 91% 0 mm 0 W/m2
07:04 3.4 °C 2.1 °C 986.3 hPa SSW 6.3 km/h 17.7 km/h 91% 0 mm 0 W/m2
07:09 3.4 °C 2.1 °C 986.3 hPa SW 3.5 km/h 14.5 km/h 91% 0 mm 0 W/m2
07:14 3.3 °C 2.1 °C 986.3 hPa WSW 4.7 km/h 14.5 km/h 91% 0 mm 0 W/m2
07:19 3.4 °C 2.1 °C 986.3 hPa SW 4 km/h 12.9 km/h 91% 0 mm 7 W/m2
07:24 3.4 °C 2.1 °C 986.3 hPa SW 9 km/h 20.9 km/h 91% 0 mm 11 W/m2
07:29 3.4 °C 2.1 °C 986.3 hPa SW 8.4 km/h 20.9 km/h 91% 0 mm 14 W/m2
07:34 3.5 °C 2.2 °C 986.3 hPa SSW 7.1 km/h 14.5 km/h 91% 0 mm 19 W/m2
07:39 3.6 °C 2.3 °C 986.3 hPa SW 8.4 km/h 12.9 km/h 91% 0 mm 25 W/m2
07:44 3.6 °C 2.3 °C 986.3 hPa South 4.7 km/h 11.3 km/h 91% 0 mm 28 W/m2
07:49 3.6 °C 2.3 °C 986.3 hPa SW 6.6 km/h 12.9 km/h 91% 0 mm 28 W/m2
07:54 3.6 °C 2.3 °C 986.3 hPa WSW 5.1 km/h 12.9 km/h 91% 0 mm 35 W/m2
07:59 3.7 °C 2.3 °C 986.7 hPa SW 9.3 km/h 12.9 km/h 91% 0 mm 60 W/m2
08:04 3.8 °C 2.5 °C 986.7 hPa WSW 6.6 km/h 12.9 km/h 91% 0.25 mm 53 W/m2
08:09 3.8 °C 2.5 °C 986.7 hPa West 4.3 km/h 12.9 km/h 91% 0.25 mm 39 W/m2
08:14 3.9 °C 2.6 °C 986.7 hPa WSW 6.3 km/h 11.3 km/h 91% 0.25 mm 32 W/m2
08:19 3.9 °C 2.6 °C 986.7 hPa SW 4.7 km/h 9.7 km/h 91% 0.25 mm 26 W/m2
08:24 3.9 °C 2.6 °C 986.7 hPa SW 10 km/h 12.9 km/h 91% 0.25 mm 25 W/m2
08:29 3.9 °C 2.7 °C 986.7 hPa WSW 11.3 km/h 19.3 km/h 91% 0.25 mm 25 W/m2
08:34 4.1 °C 2.7 °C 986.7 hPa SW 9.3 km/h 17.7 km/h 91% 0.25 mm 25 W/m2
08:39 4.1 °C 2.8 °C 986.7 hPa WSW 5.3 km/h 14.5 km/h 91% 0.25 mm 26 W/m2
08:44 4.1 °C 2.8 °C 987 hPa WSW 6.4 km/h 12.9 km/h 91% 0.25 mm 32 W/m2
08:49 4.1 °C 2.8 °C 986.7 hPa West 4 km/h 14.5 km/h 91% 0.25 mm 44 W/m2
08:54 4 °C 2.5 °C 986.7 hPa WSW 8.5 km/h 17.7 km/h 90% 0.25 mm 47 W/m2
08:59 4 °C 2.5 °C 986.7 hPa WSW 8.7 km/h 16.1 km/h 90% 0.25 mm 49 W/m2
09:04 4.1 °C 2.6 °C 986.7 hPa WSW 10.6 km/h 22.5 km/h 90% 0 mm 69 W/m2
09:09 4.1 °C 2.6 °C 987 hPa West 8.4 km/h 17.7 km/h 90% 0 mm 70 W/m2
09:14 4.1 °C 2.6 °C 987 hPa West 7.4 km/h 11.3 km/h 90% 0 mm 53 W/m2
09:19 4.1 °C 2.5 °C 987 hPa WSW 5.8 km/h 14.5 km/h 89.2% 0 mm 51 W/m2
09:24 4.1 °C 2.5 °C 987 hPa West 4.7 km/h 9.7 km/h 89% 0 mm 70 W/m2
09:29 4.1 °C 2.5 °C 987 hPa West 5.1 km/h 6.4 km/h 89% 0 mm 102 W/m2
09:34 4.2 °C 2.5 °C 987 hPa West 5.6 km/h 11.3 km/h 89% 0 mm 128 W/m2
09:39 4.2 °C 2.6 °C 987 hPa WSW 5.3 km/h 16.1 km/h 89% 0 mm 158 W/m2
09:44 4.3 °C 2.7 °C 987 hPa WSW 5.6 km/h 12.9 km/h 89% 0 mm 139 W/m2
09:49 4.4 °C 2.7 °C 987 hPa WSW 5.8 km/h 12.9 km/h 89% 0 mm 123 W/m2
09:54 4.4 °C 2.7 °C 987 hPa West 5 km/h 9.7 km/h 88.8% 0 mm 137 W/m2
09:59 4.6 °C 2.8 °C 987 hPa WSW 7.2 km/h 16.1 km/h 88% 0 mm 155 W/m2
10:04 4.7 °C 2.9 °C 987 hPa West 6.4 km/h 19.3 km/h 88% 0 mm 181 W/m2
10:09 4.8 °C 2.9 °C 987 hPa WSW 10.3 km/h 19.3 km/h 87.6% 0 mm 209 W/m2
10:14 4.8 °C 2.8 °C 987.4 hPa SW 9.7 km/h 20.9 km/h 87% 0 mm 244 W/m2
10:19 5.1 °C 3.1 °C 987.4 hPa WSW 11.3 km/h 20.9 km/h 86.8% 0 mm 311 W/m2
10:24 5.2 °C 3.1 °C 987.4 hPa WSW 11.4 km/h 16.1 km/h 86% 0 mm 278 W/m2
10:29 5.3 °C 3.1 °C 987.4 hPa WSW 10 km/h 20.9 km/h 86% 0 mm 183 W/m2
10:34 5.2 °C 2.8 °C 987.4 hPa WSW 12.9 km/h 20.9 km/h 85% 0 mm 120 W/m2
10:39 5.1 °C 2.8 °C 987.4 hPa WSW 11.9 km/h 19.3 km/h 85% 0 mm 141 W/m2
10:44 4.9 °C 2.7 °C 987.4 hPa WSW 11.6 km/h 20.9 km/h 85% 0 mm 176 W/m2
10:49 4.9 °C 2.7 °C 987.7 hPa West 6.4 km/h 19.3 km/h 85% 0 mm 236 W/m2
10:54 5.1 °C 2.8 °C 987.7 hPa WSW 10.8 km/h 14.5 km/h 85% 0 mm 283 W/m2
10:59 5.2 °C 2.9 °C 987.7 hPa SW 9.3 km/h 17.7 km/h 85% 0 mm 271 W/m2
11:04 5.3 °C 3 °C 987.7 hPa WSW 6.8 km/h 16.1 km/h 85% 0 mm 251 W/m2
11:09 5.4 °C 3.1 °C 987.7 hPa WSW 9 km/h 17.7 km/h 85% 0 mm 216 W/m2
11:14 5.5 °C 3.2 °C 987.7 hPa WSW 7.7 km/h 14.5 km/h 85% 0 mm 169 W/m2
11:19 5.6 °C 3.3 °C 987.7 hPa SW 7.9 km/h 16.1 km/h 85% 0 mm 183 W/m2
11:24 5.6 °C 3.2 °C 988 hPa SW 11.4 km/h 14.5 km/h 84.2% 0 mm 186 W/m2
11:29 5.7 °C 3.2 °C 988 hPa WSW 5.1 km/h 12.9 km/h 84.2% 0 mm 158 W/m2
11:34 5.7 °C 3.2 °C 988 hPa WSW 7.2 km/h 19.3 km/h 84.2% 0 mm 163 W/m2
11:39 5.6 °C 3.1 °C 988 hPa SW 13.5 km/h 19.3 km/h 84% 0 mm 151 W/m2
11:44 5.4 °C 3 °C 988 hPa SW 9.2 km/h 17.7 km/h 84.2% 0 mm 127 W/m2
11:49 5.4 °C 3.1 °C 988 hPa SW 10.3 km/h 17.7 km/h 84.8% 0 mm 118 W/m2
11:54 5.3 °C 2.9 °C 988 hPa WSW 12.4 km/h 16.1 km/h 84.8% 0 mm 120 W/m2
11:59 5.3 °C 2.9 °C 987.7 hPa SW 10.9 km/h 17.7 km/h 84.8% 0 mm 127 W/m2
12:04 5.3 °C 3 °C 988 hPa SW 10 km/h 16.1 km/h 85% 0 mm 120 W/m2
12:09 5.3 °C 3 °C 987.7 hPa SW 7.9 km/h 12.9 km/h 85% 0 mm 135 W/m2
12:14 5.3 °C 3 °C 987.7 hPa SW 9 km/h 17.7 km/h 85% 0 mm 139 W/m2
12:19 5.2 °C 2.9 °C 987.7 hPa WSW 10.6 km/h 16.1 km/h 85% 0 mm 163 W/m2
12:24 5.2 °C 2.8 °C 987.7 hPa WSW 8.2 km/h 16.1 km/h 84.2% 0 mm 406 W/m2
12:29 5.4 °C 2.9 °C 987.7 hPa WSW 12.6 km/h 19.3 km/h 84% 0 mm 615 W/m2
12:34 5.8 °C 3.3 °C 987.7 hPa SW 9.8 km/h 19.3 km/h 84% 0 mm 571 W/m2
12:39 5.9 °C 3.3 °C 987.7 hPa SW 10 km/h 22.5 km/h 83.4% 0 mm 336 W/m2
12:44 6.1 °C 3.3 °C 987.7 hPa SW 11.3 km/h 22.5 km/h 82.6% 0 mm 336 W/m2
12:49 6.1 °C 3.2 °C 987.7 hPa WSW 11.3 km/h 19.3 km/h 81.6% 0 mm 220 W/m2
12:54 6.1 °C 3.1 °C 987.7 hPa SW 12.6 km/h 19.3 km/h 81% 0 mm 341 W/m2
12:59 6.3 °C 3.3 °C 987.4 hPa WSW 9.7 km/h 27.4 km/h 81% 0 mm 392 W/m2
13:04 6.3 °C 3.1 °C 987.4 hPa WSW 15.9 km/h 25.7 km/h 80% 0 mm 302 W/m2
13:09 6.2 °C 3 °C 987.4 hPa WSW 12.6 km/h 25.7 km/h 80% 0 mm 190 W/m2
13:14 5.9 °C 2.7 °C 987.4 hPa SSW 11.4 km/h 20.9 km/h 80% 0 mm 431 W/m2
13:19 5.9 °C 2.8 °C 987.4 hPa SW 5.8 km/h 17.7 km/h 80.4% 0 mm 540 W/m2
13:24 6.6 °C 3.6 °C 987.4 hPa SSW 4.8 km/h 12.9 km/h 81% 0 mm 492 W/m2
13:29 6.8 °C 3.7 °C 987 hPa SSW 8.4 km/h 16.1 km/h 80.4% 0 mm 490 W/m2
13:34 6.9 °C 3.7 °C 987 hPa SW 9.7 km/h 19.3 km/h 80% 0 mm 635 W/m2
13:39 6.9 °C 3.6 °C 987 hPa SW 10.9 km/h 19.3 km/h 79% 0 mm 202 W/m2
13:44 6.9 °C 3.5 °C 987 hPa SW 11.6 km/h 19.3 km/h 78.8% 0 mm 172 W/m2
13:49 6.6 °C 2.9 °C 987 hPa SW 12.1 km/h 17.7 km/h 78% 0 mm 91 W/m2
13:54 6.3 °C 2.8 °C 987.4 hPa SW 12.4 km/h 24.1 km/h 78% 0 mm 60 W/m2
13:59 6 °C 2.7 °C 987.4 hPa SW 17.1 km/h 24.1 km/h 79.2% 0 mm 54 W/m2
14:04 5.6 °C 2.5 °C 987.4 hPa WSW 10.3 km/h 22.5 km/h 80.6% 0 mm 118 W/m2
14:09 5.2 °C 2.5 °C 987.4 hPa West 7.9 km/h 17.7 km/h 82.6% 0 mm 167 W/m2
14:14 5.1 °C 2.6 °C 987.4 hPa West 8 km/h 14.5 km/h 83.8% 0 mm 171 W/m2
14:19 5.1 °C 2.7 °C 987.4 hPa West 8.2 km/h 12.9 km/h 84.4% 0 mm 130 W/m2
14:24 5.2 °C 2.9 °C 987.4 hPa SW 6.9 km/h 14.5 km/h 85% 0 mm 51 W/m2
14:29 5.1 °C 2.8 °C 987.4 hPa WSW 6.3 km/h 19.3 km/h 85% 0 mm 93 W/m2
14:34 5 °C 2.9 °C 987.7 hPa WSW 4.3 km/h 14.5 km/h 86% 0 mm 230 W/m2
14:39 5.2 °C 3.1 °C 987.7 hPa WSW 2.6 km/h 8 km/h 86% 0 mm 216 W/m2
14:44 5.3 °C 3.2 °C 987.7 hPa WSW 3.2 km/h 9.7 km/h 86.6% 0 mm 185 W/m2
14:49 5.2 °C 3.2 °C 987.7 hPa WNW 5.1 km/h 9.7 km/h 87% 0 mm 137 W/m2
14:54 5.3 °C 3.3 °C 987.7 hPa West 6.1 km/h 11.3 km/h 87% 0 mm 158 W/m2
14:59 5.3 °C 3.3 °C 987.7 hPa WSW 6 km/h 11.3 km/h 87% 0 mm 105 W/m2
15:04 5.3 °C 3.3 °C 987.7 hPa West 7.7 km/h 14.5 km/h 87% 0 mm 104 W/m2
15:09 5.3 °C 3.3 °C 987.7 hPa West 8.4 km/h 16.1 km/h 87% 0 mm 91 W/m2
15:14 5.3 °C 3.3 °C 987.7 hPa West 8.5 km/h 16.1 km/h 86.6% 0 mm 86 W/m2
15:19 5.3 °C 3.1 °C 987.7 hPa West 8.5 km/h 16.1 km/h 86% 0 mm 84 W/m2
15:24 5.3 °C 3.1 °C 987.7 hPa West 13.8 km/h 19.3 km/h 85.8% 0 mm 67 W/m2
15:29 5.2 °C 2.9 °C 988 hPa West 12.9 km/h 22.5 km/h 85% 0 mm 51 W/m2
15:34 5.1 °C 2.8 °C 988 hPa WNW 10.6 km/h 20.9 km/h 85% 0 mm 90 W/m2
15:39 4.7 °C 2.4 °C 988 hPa West 7.7 km/h 19.3 km/h 85% 0 mm 114 W/m2
15:44 4.7 °C 2.5 °C 988 hPa West 7.4 km/h 16.1 km/h 85.8% 0 mm 113 W/m2
15:49 4.4 °C 2.3 °C 988 hPa WSW 14.2 km/h 25.7 km/h 86% 0.25 mm 44 W/m2
15:53 4 °C 1.8 °C 988.4 hPa West 12.9 km/h 24.1 km/h 86% 0.25 mm 58 W/m2
15:59 3.8 °C 1.7 °C 988.4 hPa WSW 12.9 km/h 20.9 km/h 86% 0.25 mm 56 W/m2
16:04 3.7 °C 1.6 °C 988 hPa SW 11.6 km/h 22.5 km/h 86% 0.25 mm 46 W/m2
16:09 3.7 °C 1.6 °C 988 hPa SSW 6.4 km/h 16.1 km/h 86% 0.25 mm 33 W/m2
16:14 3.8 °C 1.7 °C 988 hPa SW 5.8 km/h 11.3 km/h 86% 0.25 mm 23 W/m2
16:19 3.8 °C 1.8 °C 988 hPa SSW 8.7 km/h 12.9 km/h 86.6% 0.25 mm 21 W/m2
16:24 3.8 °C 1.8 °C 988 hPa SW 5.8 km/h 12.9 km/h 87% 0.25 mm 25 W/m2
16:29 3.8 °C 1.8 °C 988 hPa SW 6.4 km/h 11.3 km/h 87% 0.25 mm 42 W/m2
16:34 3.8 °C 1.8 °C 988 hPa SW 5.1 km/h 9.7 km/h 87% 0.25 mm 60 W/m2
16:39 3.8 °C 1.8 °C 988 hPa WSW 5.5 km/h 9.7 km/h 87% 0.25 mm 62 W/m2
16:44 3.8 °C 1.8 °C 988 hPa WSW 4.5 km/h 9.7 km/h 87% 0.25 mm 72 W/m2
16:49 3.8 °C 1.8 °C 988 hPa SW 4.5 km/h 11.3 km/h 87% 0.25 mm 77 W/m2
16:54 3.8 °C 1.8 °C 988 hPa WSW 6 km/h 11.3 km/h 87% 0 mm 77 W/m2
16:59 3.7 °C 1.7 °C 988 hPa West 4.3 km/h 11.3 km/h 87% 0 mm 72 W/m2
17:04 3.7 °C 1.9 °C 988 hPa West 3.2 km/h 8 km/h 88% 0 mm 63 W/m2
17:09 3.7 °C 1.9 °C 988 hPa West 6 km/h 12.9 km/h 88% 0 mm 49 W/m2
17:14 3.7 °C 1.9 °C 988 hPa WSW 2.3 km/h 6.4 km/h 88% 0 mm 37 W/m2
17:19 3.7 °C 1.9 °C 988.4 hPa WSW 2.7 km/h 8 km/h 88% 0 mm 26 W/m2
17:24 3.7 °C 1.9 °C 988.4 hPa WSW 1 km/h 6.4 km/h 88% 0 mm 19 W/m2
17:29 3.7 °C 1.9 °C 988.4 hPa WSW 3.2 km/h 8 km/h 88% 0 mm 14 W/m2
17:34 3.7 °C 1.9 °C 988.4 hPa SW 3.1 km/h 6.4 km/h 88% 0 mm 9 W/m2
17:39 3.7 °C 1.9 °C 988.7 hPa SW 3.7 km/h 8 km/h 88% 0 mm 0 W/m2
17:44 3.7 °C 2 °C 988.7 hPa SW 2.6 km/h 6.4 km/h 88.8% 0 mm 0 W/m2
17:49 3.6 °C 2 °C 988.7 hPa WSW 5.1 km/h 11.3 km/h 89% 0 mm 0 W/m2
17:54 3.5 °C 1.9 °C 988.7 hPa WSW 6.1 km/h 11.3 km/h 89% 0 mm 0 W/m2
17:59 3.4 °C 1.8 °C 989.1 hPa SW 5.8 km/h 11.3 km/h 89% 0 mm 0 W/m2
18:04 3.4 °C 1.8 °C 989.1 hPa WSW 3.4 km/h 9.7 km/h 89% 0 mm 0 W/m2
18:09 3.4 °C 1.8 °C 989.1 hPa WSW 3.2 km/h 8 km/h 89% 0 mm 0 W/m2
18:14 3.3 °C 1.7 °C 989.1 hPa West 3.5 km/h 8 km/h 89% 0 mm 0 W/m2
18:19 3.3 °C 1.7 °C 989.1 hPa WSW 5.8 km/h 9.7 km/h 89% 0 mm 0 W/m2
18:24 3.2 °C 1.6 °C 989.1 hPa WSW 4.7 km/h 9.7 km/h 89% 0 mm 0 W/m2
18:29 3.2 °C 1.6 °C 989.1 hPa SW 3.9 km/h 9.7 km/h 89% 0 mm 0 W/m2
18:34 3.2 °C 1.6 °C 989.4 hPa SW 2.7 km/h 4.8 km/h 89% 0 mm 0 W/m2
18:39 3.2 °C 1.6 °C 989.1 hPa SW 2.9 km/h 4.8 km/h 89% 0 mm 0 W/m2
18:44 3.1 °C 1.5 °C 989.4 hPa SW 2.7 km/h 6.4 km/h 89% 0 mm 0 W/m2
18:49 3.1 °C 1.5 °C 989.4 hPa SW 2.3 km/h 8 km/h 89% 0 mm 0 W/m2
18:54 3 °C 1.4 °C 989.4 hPa WSW 2.6 km/h 8 km/h 89% 0 mm 0 W/m2
18:59 3 °C 1.4 °C 989.7 hPa SW 4.8 km/h 9.7 km/h 89% 0 mm 0 W/m2
19:04 2.9 °C 1.3 °C 989.4 hPa SW 2.7 km/h 8 km/h 89% 0 mm 0 W/m2
19:09 2.9 °C 1.3 °C 989.7 hPa SW 1.3 km/h 4.8 km/h 89% 0 mm 0 W/m2
19:14 2.9 °C 1.3 °C 989.7 hPa SW 0.8 km/h 4.8 km/h 89% 0 mm 0 W/m2
19:19 2.8 °C 1.2 °C 989.7 hPa SW 0.3 km/h 3.2 km/h 89% 0 mm 0 W/m2
19:24 2.8 °C 1.3 °C 989.7 hPa SW 1 km/h 4.8 km/h 89.6% 0 mm 0 W/m2
19:29 2.8 °C 1.3 °C 989.7 hPa SW 0.6 km/h 4.8 km/h 90% 0 mm 0 W/m2
19:34 2.8 °C 1.3 °C 989.7 hPa SW 1.4 km/h 4.8 km/h 90% 0 mm 0 W/m2
19:39 2.8 °C 1.3 °C 989.7 hPa SW 1.6 km/h 6.4 km/h 90% 0 mm 0 W/m2
19:44 2.8 °C 1.3 °C 989.7 hPa WSW 3.9 km/h 8 km/h 90% 0 mm 0 W/m2
19:49 2.7 °C 1.2 °C 989.7 hPa WSW 3.5 km/h 8 km/h 90% 0 mm 0 W/m2
19:54 2.7 °C 1.2 °C 990.1 hPa WSW 1.9 km/h 4.8 km/h 90% 0 mm 0 W/m2
19:59 2.6 °C 1.1 °C 989.7 hPa West 2.4 km/h 8 km/h 90% 0 mm 0 W/m2
20:04 2.5 °C 1 °C 990.1 hPa West 4.5 km/h 8 km/h 90% 0 mm 0 W/m2
20:09 2.5 °C 1 °C 990.1 hPa West 4.8 km/h 8 km/h 90% 0 mm 0 W/m2
20:14 2.4 °C 0.9 °C 990.1 hPa West 3.7 km/h 8 km/h 90% 0 mm 0 W/m2
20:19 2.4 °C 0.9 °C 990.1 hPa West 3.2 km/h 6.4 km/h 90% 0 mm 0 W/m2
20:24 2.3 °C 0.8 °C 990.1 hPa West 2.1 km/h 6.4 km/h 90% 0 mm 0 W/m2
20:29 2.3 °C 0.8 °C 990.4 hPa West 2.6 km/h 6.4 km/h 90% 0 mm 0 W/m2
20:34 2.3 °C 0.8 °C 990.4 hPa West 2.7 km/h 4.8 km/h 90% 0 mm 0 W/m2
20:39 2.2 °C 0.7 °C 990.4 hPa West 1.9 km/h 4.8 km/h 90% 0 mm 0 W/m2
20:44 2.2 °C 0.8 °C 990.4 hPa West 2.6 km/h 6.4 km/h 90.6% 0 mm 0 W/m2
20:49 2.1 °C 0.8 °C 990.4 hPa West 2.3 km/h 6.4 km/h 91% 0 mm 0 W/m2
20:54 2.1 °C 0.7 °C 990.4 hPa West 1.9 km/h 3.2 km/h 90.2% 0 mm 0 W/m2
20:59 2.1 °C 0.7 °C 990.7 hPa West 1.4 km/h 4.8 km/h 90.6% 0 mm 0 W/m2
21:04 2 °C 0.7 °C 990.7 hPa West 1.9 km/h 3.2 km/h 91% 0 mm 0 W/m2
21:09 1.8 °C 0.6 °C 990.7 hPa West 0.3 km/h 3.2 km/h 91% 0 mm 0 W/m2
21:14 1.8 °C 0.5 °C 990.7 hPa Calm   1.6 km/h 91% 0 mm 0 W/m2
21:19 1.8 °C 0.4 °C 990.7 hPa Calm     91% 0 mm 0 W/m2
21:24 1.8 °C 0.4 °C 990.7 hPa Calm     91% 0 mm 0 W/m2
21:29 1.7 °C 0.4 °C 990.7 hPa Calm     91% 0 mm 0 W/m2
21:34 1.9 °C 0.6 °C 990.7 hPa WNW 3.9 km/h 9.7 km/h 91% 0 mm 0 W/m2
21:39 2 °C 0.7 °C 990.7 hPa West 3.4 km/h 6.4 km/h 91% 0 mm 0 W/m2
21:44 2.1 °C 0.8 °C 990.7 hPa West 0.8 km/h 6.4 km/h 91% 0 mm 0 W/m2
21:49 2.1 °C 0.8 °C 990.7 hPa West 1 km/h 6.4 km/h 91% 0 mm 0 W/m2
21:54 2 °C 0.7 °C 990.7 hPa Calm   1.6 km/h 91% 0 mm 0 W/m2
21:59 1.9 °C 0.7 °C 990.7 hPa Calm   1.6 km/h 91% 0 mm 0 W/m2
22:04 1.9 °C 0.6 °C 991.1 hPa West 0.6 km/h 3.2 km/h 91% 0 mm 0 W/m2
22:09 1.8 °C 0.5 °C 991.1 hPa West 1.4 km/h 3.2 km/h 91% 0 mm 0 W/m2
22:14 1.7 °C 0.3 °C 991.1 hPa West 0.6 km/h 1.6 km/h 91% 0 mm 0 W/m2
22:19 1.5 °C 0.2 °C 991.1 hPa West 0.3 km/h 1.6 km/h 91% 0 mm 0 W/m2
22:24 1.3 °C 0.1 °C 991.4 hPa Calm     91% 0 mm 0 W/m2
22:29 1.3 °C 0 °C 991.4 hPa Calm     91% 0 mm 0 W/m2
22:34 1.2 °C -0.1 °C 991.4 hPa Calm     91% 0 mm 0 W/m2
22:39 1.1 °C -0.2 °C 991.4 hPa Calm     91% 0 mm 0 W/m2
22:44 0.9 °C -0.3 °C 991.4 hPa Calm     91% 0 mm 0 W/m2
22:49 0.9 °C -0.3 °C 991.4 hPa Calm     91.8% 0 mm 0 W/m2
22:54 1 °C -0.2 °C 991.4 hPa Calm     92% 0 mm 0 W/m2
22:59 0.9 °C -0.3 °C 991.4 hPa Calm     91.6% 0 mm 0 W/m2
23:04 0.9 °C -0.3 °C 991.4 hPa Calm     92% 0 mm 0 W/m2
23:09 0.8 °C -0.4 °C 991.4 hPa Calm     92% 0 mm 0 W/m2
23:14 0.8 °C -0.4 °C 991.4 hPa Calm     92% 0 mm 0 W/m2
23:19 0.7 °C -0.5 °C 991.8 hPa Calm     92% 0 mm 0 W/m2
23:24 0.6 °C -0.5 °C 991.8 hPa Calm     92% 0 mm 0 W/m2
23:29 0.6 °C -0.5 °C 991.8 hPa Calm     92% 0 mm 0 W/m2
23:34 0.7 °C -0.5 °C 991.8 hPa Calm     92% 0 mm 0 W/m2
23:39 0.7 °C -0.5 °C 991.8 hPa Calm     92% 0 mm 0 W/m2
23:44 0.6 °C -0.5 °C 991.8 hPa Calm     92% 0 mm 0 W/m2
23:49 0.6 °C -0.5 °C 991.8 hPa Calm     92% 0 mm 0 W/m2
23:54 0.5 °C -0.6 °C 991.8 hPa Calm     92% 0 mm 0 W/m2
23:59 0.4 °C -0.7 °C 991.8 hPa Calm     92% 0 mm 0 W/m2
Bath Spa Weather
Compliments of Weather Underground - 2 mb